sensor_id;sensor_type;location;lat;lon;timestamp;pressure;altitude;pressure_sealevel;temperature;humidity
56689;BME280;42565;53.342;-1.534;2022-07-12T00:01:45;99529.32;;;24.75;36.53
56689;BME280;42565;53.342;-1.534;2022-07-12T00:04:13;99527.63;;;25.07;36.86
56689;BME280;42565;53.342;-1.534;2022-07-12T00:06:41;99530.57;;;25.75;35.93
56689;BME280;42565;53.342;-1.534;2022-07-12T00:09:09;99530.66;;;25.19;36.13
56689;BME280;42565;53.342;-1.534;2022-07-12T00:11:36;99533.57;;;25.40;36.30
56689;BME280;42565;53.342;-1.534;2022-07-12T00:14:03;99539.17;;;25.73;35.95
56689;BME280;42565;53.342;-1.534;2022-07-12T00:16:30;99534.60;;;25.66;35.95
56689;BME280;42565;53.342;-1.534;2022-07-12T00:18:58;99534.40;;;25.33;35.60
56689;BME280;42565;53.342;-1.534;2022-07-12T00:21:26;99532.51;;;25.65;35.60
56689;BME280;42565;53.342;-1.534;2022-07-12T00:23:53;99533.62;;;26.17;34.99
56689;BME280;42565;53.342;-1.534;2022-07-12T00:26:20;99540.24;;;26.10;34.68
56689;BME280;42565;53.342;-1.534;2022-07-12T00:28:46;99537.17;;;25.81;34.84
56689;BME280;42565;53.342;-1.534;2022-07-12T00:31:13;99537.91;;;25.72;35.08
56689;BME280;42565;53.342;-1.534;2022-07-12T00:33:41;99540.81;;;25.73;35.36
56689;BME280;42565;53.342;-1.534;2022-07-12T00:36:08;99540.61;;;26.09;35.09
56689;BME280;42565;53.342;-1.534;2022-07-12T00:38:36;99536.72;;;26.21;35.49
56689;BME280;42565;53.342;-1.534;2022-07-12T00:41:04;99537.60;;;25.62;35.74
56689;BME280;42565;53.342;-1.534;2022-07-12T00:43:31;99539.23;;;25.75;36.03
56689;BME280;42565;53.342;-1.534;2022-07-12T00:45:57;99534.17;;;25.98;35.73
56689;BME280;42565;53.342;-1.534;2022-07-12T00:48:25;99530.78;;;25.20;36.40
56689;BME280;42565;53.342;-1.534;2022-07-12T00:50:53;99532.23;;;25.55;35.93
56689;BME280;42565;53.342;-1.534;2022-07-12T00:53:20;99530.32;;;25.45;36.57
56689;BME280;42565;53.342;-1.534;2022-07-12T00:55:48;99523.97;;;24.45;37.99
56689;BME280;42565;53.342;-1.534;2022-07-12T00:58:14;99509.18;;;24.99;37.14
56689;BME280;42565;53.342;-1.534;2022-07-12T01:00:41;99511.11;;;25.04;36.79
56689;BME280;42565;53.342;-1.534;2022-07-12T01:03:09;99509.31;;;24.84;36.86
56689;BME280;42565;53.342;-1.534;2022-07-12T01:05:35;99510.39;;;25.52;36.77
56689;BME280;42565;53.342;-1.534;2022-07-12T01:08:02;99514.86;;;25.44;36.76
56689;BME280;42565;53.342;-1.534;2022-07-12T01:10:31;99510.68;;;25.51;36.64
56689;BME280;42565;53.342;-1.534;2022-07-12T01:12:58;99503.76;;;25.78;36.06
56689;BME280;42565;53.342;-1.534;2022-07-12T01:15:26;99508.51;;;26.06;35.65
56689;BME280;42565;53.342;-1.534;2022-07-12T01:17:55;99512.39;;;25.63;36.01
56689;BME280;42565;53.342;-1.534;2022-07-12T01:20:22;99518.16;;;25.34;36.62
56689;BME280;42565;53.342;-1.534;2022-07-12T01:22:52;99523.87;;;25.54;36.86
56689;BME280;42565;53.342;-1.534;2022-07-12T01:25:20;99529.82;;;25.43;36.62
56689;BME280;42565;53.342;-1.534;2022-07-12T01:27:48;99527.02;;;24.88;37.72
56689;BME280;42565;53.342;-1.534;2022-07-12T01:30:15;99523.54;;;24.61;38.14
56689;BME280;42565;53.342;-1.534;2022-07-12T01:32:43;99523.78;;;24.57;38.12
56689;BME280;42565;53.342;-1.534;2022-07-12T01:35:11;99517.92;;;25.34;37.31
56689;BME280;42565;53.342;-1.534;2022-07-12T01:37:40;99515.86;;;25.01;37.54
56689;BME280;42565;53.342;-1.534;2022-07-12T01:40:09;99517.07;;;24.08;38.82
56689;BME280;42565;53.342;-1.534;2022-07-12T01:42:38;99514.47;;;24.29;39.37
56689;BME280;42565;53.342;-1.534;2022-07-12T01:45:08;99508.02;;;25.15;38.17
56689;BME280;42565;53.342;-1.534;2022-07-12T01:47:35;99511.26;;;25.24;37.78
56689;BME280;42565;53.342;-1.534;2022-07-12T01:50:05;99511.57;;;25.19;37.68
56689;BME280;42565;53.342;-1.534;2022-07-12T01:52:33;99511.97;;;25.74;36.86
56689;BME280;42565;53.342;-1.534;2022-07-12T01:55:00;99510.49;;;25.59;37.25
56689;BME280;42565;53.342;-1.534;2022-07-12T01:57:28;99506.94;;;25.13;37.30
56689;BME280;42565;53.342;-1.534;2022-07-12T01:59:55;99518.16;;;25.48;37.00
56689;BME280;42565;53.342;-1.534;2022-07-12T02:02:25;99513.56;;;25.29;37.46
56689;BME280;42565;53.342;-1.534;2022-07-12T02:04:53;99516.30;;;25.58;37.36
56689;BME280;42565;53.342;-1.534;2022-07-12T02:07:21;99525.29;;;25.77;36.99
56689;BME280;42565;53.342;-1.534;2022-07-12T02:09:50;99528.96;;;25.28;37.18
56689;BME280;42565;53.342;-1.534;2022-07-12T02:12:16;99529.84;;;24.88;37.99
56689;BME280;42565;53.342;-1.534;2022-07-12T02:14:44;99523.34;;;25.08;38.07
56689;BME280;42565;53.342;-1.534;2022-07-12T02:17:10;99525.91;;;24.68;38.34
56689;BME280;42565;53.342;-1.534;2022-07-12T02:19:37;99528.94;;;24.58;39.24
56689;BME280;42565;53.342;-1.534;2022-07-12T02:22:04;99530.78;;;24.32;39.82
56689;BME280;42565;53.342;-1.534;2022-07-12T02:24:31;99531.23;;;24.53;38.98
56689;BME280;42565;53.342;-1.534;2022-07-12T02:26:58;99528.33;;;24.13;39.97
56689;BME280;42565;53.342;-1.534;2022-07-12T02:29:26;99534.39;;;24.13;39.79
56689;BME280;42565;53.342;-1.534;2022-07-12T02:31:53;99531.33;;;24.63;39.54
56689;BME280;42565;53.342;-1.534;2022-07-12T02:34:21;99531.62;;;23.68;40.38
56689;BME280;42565;53.342;-1.534;2022-07-12T02:36:48;99529.37;;;23.32;41.37
56689;BME280;42565;53.342;-1.534;2022-07-12T02:39:16;99526.93;;;23.12;42.45
56689;BME280;42565;53.342;-1.534;2022-07-12T02:41:42;99528.87;;;22.60;43.27
56689;BME280;42565;53.342;-1.534;2022-07-12T02:44:09;99532.28;;;23.54;42.03
56689;BME280;42565;53.342;-1.534;2022-07-12T02:46:36;99532.74;;;23.55;41.60
56689;BME280;42565;53.342;-1.534;2022-07-12T02:49:03;99529.41;;;23.28;42.02
56689;BME280;42565;53.342;-1.534;2022-07-12T02:51:30;99524.67;;;23.53;41.93
56689;BME280;42565;53.342;-1.534;2022-07-12T02:53:58;99518.83;;;23.12;42.61
56689;BME280;42565;53.342;-1.534;2022-07-12T02:56:24;99518.36;;;22.46;43.59
56689;BME280;42565;53.342;-1.534;2022-07-12T02:58:51;99516.34;;;22.78;42.69
56689;BME280;42565;53.342;-1.534;2022-07-12T03:01:18;99510.69;;;22.77;43.05
56689;BME280;42565;53.342;-1.534;2022-07-12T03:03:44;99506.59;;;22.86;42.62
56689;BME280;42565;53.342;-1.534;2022-07-12T03:06:11;99507.38;;;22.09;44.08
56689;BME280;42565;53.342;-1.534;2022-07-12T03:08:38;99505.64;;;22.89;43.00
56689;BME280;42565;53.342;-1.534;2022-07-12T03:11:05;99510.87;;;21.97;44.37
56689;BME280;42565;53.342;-1.534;2022-07-12T03:13:32;99501.07;;;22.28;44.03
56689;BME280;42565;53.342;-1.534;2022-07-12T03:15:59;99497.62;;;22.45;43.78
56689;BME280;42565;53.342;-1.534;2022-07-12T03:18:25;99496.80;;;22.22;44.02
56689;BME280;42565;53.342;-1.534;2022-07-12T03:20:52;99492.51;;;22.21;43.73
56689;BME280;42565;53.342;-1.534;2022-07-12T03:23:19;99491.18;;;22.27;44.42
56689;BME280;42565;53.342;-1.534;2022-07-12T03:25:45;99500.22;;;21.61;45.26
56689;BME280;42565;53.342;-1.534;2022-07-12T03:28:12;99500.94;;;22.10;44.51
56689;BME280;42565;53.342;-1.534;2022-07-12T03:30:39;99501.86;;;22.08;44.55
56689;BME280;42565;53.342;-1.534;2022-07-12T03:33:06;99506.50;;;22.30;44.08
56689;BME280;42565;53.342;-1.534;2022-07-12T03:35:33;99506.45;;;22.87;43.20
56689;BME280;42565;53.342;-1.534;2022-07-12T03:38:02;99505.03;;;22.71;43.12
56689;BME280;42565;53.342;-1.534;2022-07-12T03:40:31;99509.51;;;23.03;42.41
56689;BME280;42565;53.342;-1.534;2022-07-12T03:42:58;99507.68;;;23.23;41.93
56689;BME280;42565;53.342;-1.534;2022-07-12T03:45:26;99501.10;;;22.51;43.22
56689;BME280;42565;53.342;-1.534;2022-07-12T03:47:53;99500.09;;;23.25;42.20
56689;BME280;42565;53.342;-1.534;2022-07-12T03:50:19;99495.96;;;22.63;42.89
56689;BME280;42565;53.342;-1.534;2022-07-12T03:52:47;99493.05;;;22.58;43.20
56689;BME280;42565;53.342;-1.534;2022-07-12T03:55:14;99494.52;;;22.13;43.59
56689;BME280;42565;53.342;-1.534;2022-07-12T03:57:41;99489.31;;;21.91;44.03
56689;BME280;42565;53.342;-1.534;2022-07-12T04:00:11;99490.16;;;21.79;44.18
56689;BME280;42565;53.342;-1.534;2022-07-12T04:02:38;99481.91;;;22.29;43.88
56689;BME280;42565;53.342;-1.534;2022-07-12T04:05:07;99486.23;;;21.96;44.15
56689;BME280;42565;53.342;-1.534;2022-07-12T04:07:34;99477.41;;;21.27;45.37
56689;BME280;42565;53.342;-1.534;2022-07-12T04:10:02;99471.36;;;21.85;43.70
56689;BME280;42565;53.342;-1.534;2022-07-12T04:12:29;99466.27;;;22.02;43.99
56689;BME280;42565;53.342;-1.534;2022-07-12T04:14:56;99468.55;;;21.95;43.18
56689;BME280;42565;53.342;-1.534;2022-07-12T04:17:22;99470.82;;;21.97;43.14
56689;BME280;42565;53.342;-1.534;2022-07-12T04:19:49;99474.82;;;21.92;43.08
56689;BME280;42565;53.342;-1.534;2022-07-12T04:22:17;99468.37;;;22.53;41.63
56689;BME280;42565;53.342;-1.534;2022-07-12T04:24:43;99461.38;;;22.30;41.52
56689;BME280;42565;53.342;-1.534;2022-07-12T04:27:10;99460.18;;;22.31;41.16
56689;BME280;42565;53.342;-1.534;2022-07-12T04:29:37;99464.00;;;21.88;41.60
56689;BME280;42565;53.342;-1.534;2022-07-12T04:32:04;99461.81;;;21.89;42.48
56689;BME280;42565;53.342;-1.534;2022-07-12T04:34:31;99461.64;;;22.27;41.76
56689;BME280;42565;53.342;-1.534;2022-07-12T04:36:58;99459.88;;;21.83;42.62
56689;BME280;42565;53.342;-1.534;2022-07-12T04:39:25;99445.68;;;22.28;41.57
56689;BME280;42565;53.342;-1.534;2022-07-12T04:41:53;99448.02;;;22.01;41.28
56689;BME280;42565;53.342;-1.534;2022-07-12T04:44:20;99451.77;;;22.03;41.61
56689;BME280;42565;53.342;-1.534;2022-07-12T04:46:48;99456.67;;;22.01;41.77
56689;BME280;42565;53.342;-1.534;2022-07-12T04:49:15;99459.42;;;22.45;40.51
56689;BME280;42565;53.342;-1.534;2022-07-12T04:51:42;99469.47;;;21.58;41.42
56689;BME280;42565;53.342;-1.534;2022-07-12T04:54:09;99471.90;;;22.28;40.47
56689;BME280;42565;53.342;-1.534;2022-07-12T04:56:35;99472.90;;;21.96;40.71
56689;BME280;42565;53.342;-1.534;2022-07-12T04:59:02;99471.65;;;22.68;40.01
56689;BME280;42565;53.342;-1.534;2022-07-12T05:01:30;99481.64;;;22.41;40.76
56689;BME280;42565;53.342;-1.534;2022-07-12T05:03:58;99478.94;;;22.37;40.44
56689;BME280;42565;53.342;-1.534;2022-07-12T05:06:25;99490.01;;;21.74;42.08
56689;BME280;42565;53.342;-1.534;2022-07-12T05:08:52;99490.67;;;21.60;42.11
56689;BME280;42565;53.342;-1.534;2022-07-12T05:11:19;99488.46;;;21.54;42.22
56689;BME280;42565;53.342;-1.534;2022-07-12T05:13:46;99483.47;;;21.88;42.13
56689;BME280;42565;53.342;-1.534;2022-07-12T05:16:13;99481.04;;;21.90;41.51
56689;BME280;42565;53.342;-1.534;2022-07-12T05:18:41;99474.41;;;21.79;41.23
56689;BME280;42565;53.342;-1.534;2022-07-12T05:21:08;99480.07;;;22.61;40.60
56689;BME280;42565;53.342;-1.534;2022-07-12T05:23:35;99481.10;;;22.32;40.68
56689;BME280;42565;53.342;-1.534;2022-07-12T05:26:03;99473.04;;;22.46;40.69
56689;BME280;42565;53.342;-1.534;2022-07-12T05:28:30;99471.63;;;21.94;41.27
56689;BME280;42565;53.342;-1.534;2022-07-12T05:30:58;99481.08;;;21.53;41.74
56689;BME280;42565;53.342;-1.534;2022-07-12T05:33:24;99482.17;;;21.94;40.79
56689;BME280;42565;53.342;-1.534;2022-07-12T05:35:51;99475.65;;;22.11;40.26
56689;BME280;42565;53.342;-1.534;2022-07-12T05:38:18;99475.28;;;21.74;39.98
56689;BME280;42565;53.342;-1.534;2022-07-12T05:40:45;99479.69;;;21.66;39.96
56689;BME280;42565;53.342;-1.534;2022-07-12T05:43:14;99476.83;;;21.74;40.22
56689;BME280;42565;53.342;-1.534;2022-07-12T05:45:41;99472.36;;;21.38;40.79
56689;BME280;42565;53.342;-1.534;2022-07-12T05:48:09;99468.28;;;22.07;40.33
56689;BME280;42565;53.342;-1.534;2022-07-12T05:50:37;99463.87;;;21.88;40.12
56689;BME280;42565;53.342;-1.534;2022-07-12T05:53:04;99464.78;;;21.00;41.46
56689;BME280;42565;53.342;-1.534;2022-07-12T05:55:31;99461.05;;;21.46;41.22
56689;BME280;42565;53.342;-1.534;2022-07-12T05:57:58;99461.98;;;21.65;40.18
56689;BME280;42565;53.342;-1.534;2022-07-12T06:00:26;99463.26;;;21.58;40.85
56689;BME280;42565;53.342;-1.534;2022-07-12T06:02:53;99464.32;;;21.22;41.30
56689;BME280;42565;53.342;-1.534;2022-07-12T06:05:20;99475.23;;;21.73;41.17
56689;BME280;42565;53.342;-1.534;2022-07-12T06:07:47;99477.97;;;21.20;41.55
56689;BME280;42565;53.342;-1.534;2022-07-12T06:10:13;99478.06;;;21.47;41.52
56689;BME280;42565;53.342;-1.534;2022-07-12T06:12:40;99484.76;;;21.69;40.92
56689;BME280;42565;53.342;-1.534;2022-07-12T06:15:08;99490.39;;;21.80;40.98
56689;BME280;42565;53.342;-1.534;2022-07-12T06:17:35;99483.30;;;21.95;40.49
56689;BME280;42565;53.342;-1.534;2022-07-12T06:20:03;99488.01;;;21.80;41.21
56689;BME280;42565;53.342;-1.534;2022-07-12T06:22:30;99487.53;;;22.06;40.85
56689;BME280;42565;53.342;-1.534;2022-07-12T06:24:57;99485.61;;;21.95;41.43
56689;BME280;42565;53.342;-1.534;2022-07-12T06:27:24;99488.68;;;21.75;42.10
56689;BME280;42565;53.342;-1.534;2022-07-12T06:29:51;99490.25;;;21.53;42.16
56689;BME280;42565;53.342;-1.534;2022-07-12T06:32:18;99490.79;;;21.82;41.50
56689;BME280;42565;53.342;-1.534;2022-07-12T06:34:45;99493.86;;;21.85;40.78
56689;BME280;42565;53.342;-1.534;2022-07-12T06:37:12;99499.46;;;22.43;40.37
56689;BME280;42565;53.342;-1.534;2022-07-12T06:39:40;99500.56;;;22.44;40.77
56689;BME280;42565;53.342;-1.534;2022-07-12T06:42:08;99503.57;;;21.78;41.48
56689;BME280;42565;53.342;-1.534;2022-07-12T06:44:36;99504.35;;;22.02;41.63
56689;BME280;42565;53.342;-1.534;2022-07-12T06:47:04;99502.04;;;21.92;41.59
56689;BME280;42565;53.342;-1.534;2022-07-12T06:49:31;99498.74;;;21.74;41.41
56689;BME280;42565;53.342;-1.534;2022-07-12T06:51:57;99496.05;;;22.03;41.81
56689;BME280;42565;53.342;-1.534;2022-07-12T06:54:25;99498.31;;;21.91;41.19
56689;BME280;42565;53.342;-1.534;2022-07-12T06:56:52;99506.02;;;21.98;41.85
56689;BME280;42565;53.342;-1.534;2022-07-12T06:59:19;99505.45;;;21.35;42.74
56689;BME280;42565;53.342;-1.534;2022-07-12T07:01:47;99504.60;;;21.34;42.24
56689;BME280;42565;53.342;-1.534;2022-07-12T07:04:13;99513.51;;;22.25;41.17
56689;BME280;42565;53.342;-1.534;2022-07-12T07:06:40;99514.09;;;22.31;40.75
56689;BME280;42565;53.342;-1.534;2022-07-12T07:09:07;99512.71;;;22.23;40.60
56689;BME280;42565;53.342;-1.534;2022-07-12T07:11:35;99511.69;;;22.37;41.10
56689;BME280;42565;53.342;-1.534;2022-07-12T07:14:02;99509.74;;;21.71;42.06
56689;BME280;42565;53.342;-1.534;2022-07-12T07:16:29;99511.16;;;21.63;43.15
56689;BME280;42565;53.342;-1.534;2022-07-12T07:18:57;99516.17;;;21.56;42.36
56689;BME280;42565;53.342;-1.534;2022-07-12T07:21:24;99508.51;;;22.00;41.77
56689;BME280;42565;53.342;-1.534;2022-07-12T07:23:52;99508.92;;;21.60;42.53
56689;BME280;42565;53.342;-1.534;2022-07-12T07:26:19;99507.61;;;21.67;42.41
56689;BME280;42565;53.342;-1.534;2022-07-12T07:28:47;99513.73;;;21.68;41.57
56689;BME280;42565;53.342;-1.534;2022-07-12T07:31:15;99514.35;;;21.59;42.63
56689;BME280;42565;53.342;-1.534;2022-07-12T07:33:41;99513.54;;;21.40;42.36
56689;BME280;42565;53.342;-1.534;2022-07-12T07:36:09;99518.12;;;21.71;42.77
56689;BME280;42565;53.342;-1.534;2022-07-12T07:38:36;99517.51;;;21.30;43.56
56689;BME280;42565;53.342;-1.534;2022-07-12T07:41:03;99514.01;;;20.91;44.67
56689;BME280;42565;53.342;-1.534;2022-07-12T07:43:31;99513.60;;;21.21;44.47
56689;BME280;42565;53.342;-1.534;2022-07-12T07:45:58;99513.59;;;21.43;43.37
56689;BME280;42565;53.342;-1.534;2022-07-12T07:48:25;99513.16;;;21.51;43.38
56689;BME280;42565;53.342;-1.534;2022-07-12T07:50:51;99511.01;;;21.32;43.20
56689;BME280;42565;53.342;-1.534;2022-07-12T07:53:18;99515.98;;;22.01;41.88
56689;BME280;42565;53.342;-1.534;2022-07-12T07:55:45;99515.39;;;21.74;41.73
56689;BME280;42565;53.342;-1.534;2022-07-12T07:58:14;99511.97;;;22.39;41.16
56689;BME280;42565;53.342;-1.534;2022-07-12T08:00:42;99516.70;;;21.50;41.91
56689;BME280;42565;53.342;-1.534;2022-07-12T08:03:09;99520.63;;;21.26;43.23
56689;BME280;42565;53.342;-1.534;2022-07-12T08:05:36;99521.06;;;21.52;42.79
56689;BME280;42565;53.342;-1.534;2022-07-12T08:08:04;99522.24;;;21.89;42.82
56689;BME280;42565;53.342;-1.534;2022-07-12T08:10:31;99527.08;;;21.95;42.34
56689;BME280;42565;53.342;-1.534;2022-07-12T08:12:59;99539.59;;;22.15;42.13
56689;BME280;42565;53.342;-1.534;2022-07-12T08:15:25;99547.28;;;21.94;41.79
56689;BME280;42565;53.342;-1.534;2022-07-12T08:17:53;99550.49;;;22.28;41.67
56689;BME280;42565;53.342;-1.534;2022-07-12T08:20:21;99549.04;;;22.60;41.31
56689;BME280;42565;53.342;-1.534;2022-07-12T08:22:49;99555.88;;;23.11;40.65
56689;BME280;42565;53.342;-1.534;2022-07-12T08:25:16;99560.63;;;22.54;41.26
56689;BME280;42565;53.342;-1.534;2022-07-12T08:27:44;99562.10;;;22.35;41.77
56689;BME280;42565;53.342;-1.534;2022-07-12T08:30:11;99561.70;;;22.45;41.56
56689;BME280;42565;53.342;-1.534;2022-07-12T08:32:43;99569.38;;;22.10;42.39
56689;BME280;42565;53.342;-1.534;2022-07-12T08:35:10;99568.68;;;22.22;42.20
56689;BME280;42565;53.342;-1.534;2022-07-12T08:37:37;99569.25;;;22.34;41.49
56689;BME280;42565;53.342;-1.534;2022-07-12T08:40:06;99562.69;;;22.81;40.44
56689;BME280;42565;53.342;-1.534;2022-07-12T08:42:34;99560.35;;;23.02;39.58
56689;BME280;42565;53.342;-1.534;2022-07-12T08:45:01;99558.42;;;23.03;39.15
56689;BME280;42565;53.342;-1.534;2022-07-12T08:47:28;99565.24;;;22.84;39.15
56689;BME280;42565;53.342;-1.534;2022-07-12T08:50:10;99563.72;;;23.20;38.72
56689;BME280;42565;53.342;-1.534;2022-07-12T08:52:40;99563.22;;;22.89;39.02
56689;BME280;42565;53.342;-1.534;2022-07-12T08:55:24;99567.09;;;23.19;38.60
56689;BME280;42565;53.342;-1.534;2022-07-12T08:57:54;99571.04;;;23.28;38.30
56689;BME280;42565;53.342;-1.534;2022-07-12T09:00:23;99563.60;;;23.32;38.39
56689;BME280;42565;53.342;-1.534;2022-07-12T09:02:52;99566.86;;;22.93;38.97
56689;BME280;42565;53.342;-1.534;2022-07-12T09:05:21;99565.85;;;23.43;38.97
56689;BME280;42565;53.342;-1.534;2022-07-12T09:07:49;99563.56;;;23.56;39.05
56689;BME280;42565;53.342;-1.534;2022-07-12T09:10:17;99572.94;;;23.82;39.12
56689;BME280;42565;53.342;-1.534;2022-07-12T09:12:45;99586.81;;;23.78;39.24
56689;BME280;42565;53.342;-1.534;2022-07-12T09:15:15;99587.61;;;24.05;38.91
56689;BME280;42565;53.342;-1.534;2022-07-12T09:17:53;99594.23;;;23.76;39.23
56689;BME280;42565;53.342;-1.534;2022-07-12T09:20:21;99595.27;;;23.67;39.50
56689;BME280;42565;53.342;-1.534;2022-07-12T09:22:51;99600.06;;;24.22;39.60
56689;BME280;42565;53.342;-1.534;2022-07-12T09:25:19;99599.62;;;23.89;39.50
56689;BME280;42565;53.342;-1.534;2022-07-12T09:27:50;99597.64;;;23.44;39.86
56689;BME280;42565;53.342;-1.534;2022-07-12T09:30:18;99602.08;;;23.22;40.78
56689;BME280;42565;53.342;-1.534;2022-07-12T09:32:54;99605.92;;;23.30;40.28
56689;BME280;42565;53.342;-1.534;2022-07-12T09:35:23;99611.54;;;23.96;39.60
56689;BME280;42565;53.342;-1.534;2022-07-12T09:37:50;99613.39;;;23.97;38.83
56689;BME280;42565;53.342;-1.534;2022-07-12T09:40:18;99616.45;;;23.90;39.09
56689;BME280;42565;53.342;-1.534;2022-07-12T09:42:48;99613.96;;;23.79;39.06
56689;BME280;42565;53.342;-1.534;2022-07-12T09:45:17;99613.51;;;24.14;38.91
56689;BME280;42565;53.342;-1.534;2022-07-12T09:47:45;99617.51;;;23.88;39.10
56689;BME280;42565;53.342;-1.534;2022-07-12T09:50:14;99619.36;;;23.70;39.68
56689;BME280;42565;53.342;-1.534;2022-07-12T09:52:41;99620.43;;;23.39;39.47
56689;BME280;42565;53.342;-1.534;2022-07-12T09:55:13;99623.60;;;24.13;39.23
56689;BME280;42565;53.342;-1.534;2022-07-12T09:57:44;99625.07;;;24.26;38.51
56689;BME280;42565;53.342;-1.534;2022-07-12T10:00:13;99624.28;;;24.92;38.16
56689;BME280;42565;53.342;-1.534;2022-07-12T10:02:41;99622.69;;;25.11;37.65
56689;BME280;42565;53.342;-1.534;2022-07-12T10:05:10;99625.53;;;25.05;37.12
56689;BME280;42565;53.342;-1.534;2022-07-12T10:07:37;99632.76;;;25.63;36.85
56689;BME280;42565;53.342;-1.534;2022-07-12T10:10:06;99632.46;;;25.86;36.71
56689;BME280;42565;53.342;-1.534;2022-07-12T10:12:34;99634.28;;;25.73;35.86
56689;BME280;42565;53.342;-1.534;2022-07-12T10:15:04;99635.37;;;25.47;35.15
56689;BME280;42565;53.342;-1.534;2022-07-12T10:17:32;99641.69;;;25.32;34.29
56689;BME280;42565;53.342;-1.534;2022-07-12T10:20:17;99647.18;;;24.66;35.45
56689;BME280;42565;53.342;-1.534;2022-07-12T10:22:46;99658.88;;;24.71;37.48
56689;BME280;42565;53.342;-1.534;2022-07-12T10:25:30;99658.58;;;24.68;36.88
56689;BME280;42565;53.342;-1.534;2022-07-12T10:27:58;99655.62;;;24.91;36.75
56689;BME280;42565;53.342;-1.534;2022-07-12T10:30:26;99656.56;;;25.44;38.20
56689;BME280;42565;53.342;-1.534;2022-07-12T10:32:54;99649.95;;;24.97;38.46
56689;BME280;42565;53.342;-1.534;2022-07-12T10:35:23;99645.02;;;24.89;37.02
56689;BME280;42565;53.342;-1.534;2022-07-12T10:38:23;99640.67;;;25.31;37.05
56689;BME280;42565;53.342;-1.534;2022-07-12T10:40:52;99636.46;;;25.26;37.78
56689;BME280;42565;53.342;-1.534;2022-07-12T10:43:28;99638.09;;;24.81;37.60
56689;BME280;42565;53.342;-1.534;2022-07-12T10:46:04;99638.89;;;24.88;36.64
56689;BME280;42565;53.342;-1.534;2022-07-12T10:48:40;99645.12;;;25.22;37.31
56689;BME280;42565;53.342;-1.534;2022-07-12T10:51:17;99649.46;;;25.10;39.32
56689;BME280;42565;53.342;-1.534;2022-07-12T10:53:45;99651.92;;;24.85;37.71
56689;BME280;42565;53.342;-1.534;2022-07-12T10:56:16;99650.80;;;24.56;39.04
56689;BME280;42565;53.342;-1.534;2022-07-12T10:58:45;99646.87;;;23.66;40.44
56689;BME280;42565;53.342;-1.534;2022-07-12T11:01:15;99652.49;;;24.28;39.66
56689;BME280;42565;53.342;-1.534;2022-07-12T11:03:44;99655.07;;;24.44;39.03
56689;BME280;42565;53.342;-1.534;2022-07-12T11:06:14;99652.90;;;24.11;39.54
56689;BME280;42565;53.342;-1.534;2022-07-12T11:08:51;99651.02;;;23.91;40.49
56689;BME280;42565;53.342;-1.534;2022-07-12T11:11:19;99647.42;;;24.12;40.55
56689;BME280;42565;53.342;-1.534;2022-07-12T11:13:47;99641.96;;;23.61;41.20
56689;BME280;42565;53.342;-1.534;2022-07-12T11:16:14;99648.85;;;23.41;39.83
56689;BME280;42565;53.342;-1.534;2022-07-12T11:18:42;99658.04;;;23.10;40.86
56689;BME280;42565;53.342;-1.534;2022-07-12T11:21:09;99654.01;;;24.12;39.26
56689;BME280;42565;53.342;-1.534;2022-07-12T11:23:38;99647.09;;;23.12;39.58
56689;BME280;42565;53.342;-1.534;2022-07-12T11:26:06;99640.05;;;23.19;40.11
56689;BME280;42565;53.342;-1.534;2022-07-12T11:28:34;99642.87;;;23.29;40.94
56689;BME280;42565;53.342;-1.534;2022-07-12T11:31:03;99645.89;;;23.41;39.71
56689;BME280;42565;53.342;-1.534;2022-07-12T11:33:33;99660.00;;;22.98;39.60
56689;BME280;42565;53.342;-1.534;2022-07-12T11:36:03;99655.91;;;23.36;38.93
56689;BME280;42565;53.342;-1.534;2022-07-12T11:38:31;99658.69;;;23.69;38.20
56689;BME280;42565;53.342;-1.534;2022-07-12T11:41:00;99661.57;;;24.42;36.63
56689;BME280;42565;53.342;-1.534;2022-07-12T11:43:28;99653.85;;;24.56;35.85
56689;BME280;42565;53.342;-1.534;2022-07-12T11:45:56;99656.95;;;24.48;35.37
56689;BME280;42565;53.342;-1.534;2022-07-12T11:48:24;99662.31;;;24.77;35.14
56689;BME280;42565;53.342;-1.534;2022-07-12T11:50:53;99660.83;;;24.31;34.25
56689;BME280;42565;53.342;-1.534;2022-07-12T11:53:22;99661.97;;;23.48;35.62
56689;BME280;42565;53.342;-1.534;2022-07-12T11:55:51;99662.71;;;23.12;36.39
56689;BME280;42565;53.342;-1.534;2022-07-12T11:58:19;99654.61;;;23.82;36.84
56689;BME280;42565;53.342;-1.534;2022-07-12T12:00:47;99644.05;;;23.52;37.13
56689;BME280;42565;53.342;-1.534;2022-07-12T12:03:16;99641.24;;;23.66;37.34
56689;BME280;42565;53.342;-1.534;2022-07-12T12:05:45;99635.48;;;23.59;37.08
56689;BME280;42565;53.342;-1.534;2022-07-12T12:08:14;99637.05;;;24.41;35.91
56689;BME280;42565;53.342;-1.534;2022-07-12T12:10:43;99644.78;;;25.19;34.54
56689;BME280;42565;53.342;-1.534;2022-07-12T12:13:15;99652.03;;;25.66;34.44
56689;BME280;42565;53.342;-1.534;2022-07-12T12:15:49;99660.10;;;25.31;34.19
56689;BME280;42565;53.342;-1.534;2022-07-12T12:18:16;99666.40;;;25.80;34.54
56689;BME280;42565;53.342;-1.534;2022-07-12T12:20:44;99663.05;;;25.50;35.19
56689;BME280;42565;53.342;-1.534;2022-07-12T12:23:16;99667.24;;;25.29;35.10
56689;BME280;42565;53.342;-1.534;2022-07-12T12:25:43;99668.01;;;25.18;35.81
56689;BME280;42565;53.342;-1.534;2022-07-12T12:28:11;99664.05;;;25.23;34.82
56689;BME280;42565;53.342;-1.534;2022-07-12T12:30:49;99660.10;;;26.11;34.61
56689;BME280;42565;53.342;-1.534;2022-07-12T12:33:33;99657.00;;;26.71;34.70
56689;BME280;42565;53.342;-1.534;2022-07-12T12:36:12;99664.38;;;26.65;33.58
56689;BME280;42565;53.342;-1.534;2022-07-12T12:38:40;99657.66;;;25.86;32.45
56689;BME280;42565;53.342;-1.534;2022-07-12T12:41:07;99650.95;;;25.29;32.83
56689;BME280;42565;53.342;-1.534;2022-07-12T12:43:35;99651.27;;;25.52;31.86
56689;BME280;42565;53.342;-1.534;2022-07-12T12:46:02;99645.07;;;25.68;31.62
56689;BME280;42565;53.342;-1.534;2022-07-12T12:48:31;99639.12;;;25.83;31.78
56689;BME280;42565;53.342;-1.534;2022-07-12T12:51:04;99638.21;;;26.37;31.44
56689;BME280;42565;53.342;-1.534;2022-07-12T12:53:32;99642.41;;;26.76;31.10
56689;BME280;42565;53.342;-1.534;2022-07-12T12:56:00;99651.11;;;25.93;31.36